Time;durP1;ratioP1;P1;durP2;ratioP2;P2;SDS_P1;SDS_P2;PMS_P1;PMS_P2;Temp;Humidity;BMP_temperature;BMP_pressure;BME280_temperature;BME280_humidity;BME280_pressure;Samples;Min_cycle;Max_cycle;Signal;HPM_P1;HPM_P2
2022/01/04 00:00:17;;;;;;;;;;;15.30;99.90;;;;;;4999594;28;771;-45
2022/01/04 00:02:44;;;;;;;;;;;15.30;99.90;;;;;;4998469;28;933;-45
2022/01/04 00:05:10;;;;;;;;;;;15.20;99.90;;;;;;4999826;28;987;-45
2022/01/04 00:07:38;;;;;;;;;;;15.20;99.90;;;;;;4999626;28;2000;-45
2022/01/04 00:10:05;;;;;;;;;;;15.10;99.90;;;;;;4999317;28;818;-45
2022/01/04 00:15:16;;;;;;;;;;;15.10;99.90;;;;;;4999532;28;764;-45
2022/01/04 00:17:43;;;;;;;;;;;15.10;99.90;;;;;;4993616;28;802;-45
2022/01/04 00:20:11;;;;;;;;;;;15.20;99.90;;;;;;4999052;28;891;-45
2022/01/04 00:22:38;;;;;;;;;;;15.10;99.90;;;;;;4999681;28;958;-45
2022/01/04 00:25:05;;;;;;;;;;;15.10;99.90;;;;;;4998934;28;880;-45
2022/01/04 00:27:32;;;;;;;;;;;15.10;99.90;;;;;;4998923;28;1902;-45
2022/01/04 00:29:58;;;;;;;;;;;15.10;99.90;;;;;;4998981;28;840;-45
2022/01/04 00:32:24;;;;;;;;;;;15.10;99.90;;;;;;4998579;28;813;-45
2022/01/04 00:34:51;;;;;;;;;;;15.10;99.90;;;;;;4999191;28;1193;-45
2022/01/04 00:37:17;;;;;;;;;;;15.10;99.90;;;;;;4999209;28;789;-45
2022/01/04 00:39:44;;;;;;;;;;;15.10;99.90;;;;;;5014465;28;936;-45
2022/01/04 00:42:11;;;;;;;;;;;15.10;99.90;;;;;;4998722;28;813;-45
2022/01/04 00:44:37;;;;;;;;;;;15.10;99.90;;;;;;4998648;28;1280;-45
2022/01/04 00:47:05;;;;;;;;;;;15.10;99.90;;;;;;4998889;28;1121;-45
2022/01/04 00:49:31;;;;;;;;;;;15.10;99.90;;;;;;4998564;28;1906;-45
2022/01/04 00:51:59;;;;;;;;;;;15.10;99.90;;;;;;4998345;28;1341;-45
2022/01/04 00:54:25;;;;;;;;;;;15.10;99.90;;;;;;4998897;28;1255;-45
2022/01/04 00:56:51;;;;;;;;;;;15.10;99.90;;;;;;4998510;28;838;-45
2022/01/04 00:59:17;;;;;;;;;;;15.00;99.90;;;;;;4998424;28;846;-45
2022/01/04 01:01:44;;;;;;;;;;;15.00;99.90;;;;;;4998360;28;765;-45
2022/01/04 01:04:12;;;;;;;;;;;15.00;99.90;;;;;;4998253;28;814;-45
2022/01/04 01:06:39;;;;;;;;;;;15.00;99.90;;;;;;4998351;28;838;-45
2022/01/04 01:09:06;;;;;;;;;;;15.00;99.90;;;;;;4996757;28;1906;-45
2022/01/04 01:11:32;;;;;;;;;;;15.00;99.90;;;;;;4998998;28;793;-45
2022/01/04 01:13:58;;;;;;;;;;;14.90;99.90;;;;;;4998040;28;1112;-45
2022/01/04 01:16:24;;;;;;;;;;;14.90;99.90;;;;;;4998700;28;924;-45
2022/01/04 01:18:49;;;;;;;;;;;14.90;99.90;;;;;;4998048;28;1038;-45
2022/01/04 01:21:16;;;;;;;;;;;14.90;99.90;;;;;;4997922;28;867;-45
2022/01/04 01:23:43;;;;;;;;;;;14.90;99.90;;;;;;4997963;28;858;-45
2022/01/04 01:26:09;;;;;;;;;;;14.90;99.90;;;;;;4998065;28;814;-45
2022/01/04 01:28:35;;;;;;;;;;;14.90;99.90;;;;;;5029040;28;1914;-45
2022/01/04 01:31:01;;;;;;;;;;;14.90;99.90;;;;;;4998081;28;790;-45
2022/01/04 01:33:27;;;;;;;;;;;14.90;99.90;;;;;;4997926;28;891;-45
2022/01/04 01:35:57;;;;;;;;;;;14.90;99.90;;;;;;4998503;28;1000;-45
2022/01/04 01:38:23;;;;;;;;;;;14.90;99.90;;;;;;4997942;28;782;-45
2022/01/04 01:40:51;;;;;;;;;;;14.90;99.90;;;;;;4997639;28;881;-45
2022/01/04 01:43:17;;;;;;;;;;;14.90;99.90;;;;;;4996686;28;1047;-45
2022/01/04 01:45:44;;;;;;;;;;;14.90;99.90;;;;;;4997343;28;1027;-45
2022/01/04 01:48:10;;;;;;;;;;;14.90;99.90;;;;;;4997646;28;1950;-45
2022/01/04 01:50:36;;;;;;;;;;;14.80;99.90;;;;;;4996980;28;975;-45
2022/01/04 01:53:02;;;;;;;;;;;14.80;99.90;;;;;;4997047;28;1570;-45
2022/01/04 01:55:28;;;;;;;;;;;14.80;99.90;;;;;;4997414;28;798;-45
2022/01/04 01:57:55;;;;;;;;;;;14.80;99.90;;;;;;4997346;28;966;-45
2022/01/04 02:00:24;;;;;;;;;;;14.80;99.90;;;;;;4994941;28;763;-45
2022/01/04 02:02:52;;;;;;;;;;;14.80;99.90;;;;;;4997254;28;798;-45
2022/01/04 02:05:18;;;;;;;;;;;14.80;99.90;;;;;;4994345;28;853;-45
2022/01/04 02:07:46;;;;;;;;;;;14.80;99.90;;;;;;5009783;28;1911;-45
2022/01/04 02:10:12;;;;;;;;;;;14.80;99.90;;;;;;5002769;28;914;-45
2022/01/04 02:12:39;;;;;;;;;;;14.80;99.90;;;;;;4997121;28;816;-45
2022/01/04 02:15:07;;;;;;;;;;;14.70;99.90;;;;;;4997032;28;861;-45
2022/01/04 02:17:33;;;;;;;;;;;14.70;99.90;;;;;;4997874;28;910;-45
2022/01/04 02:19:59;;;;;;;;;;;14.70;99.90;;;;;;4996848;28;824;-45
2022/01/04 02:22:26;;;;;;;;;;;14.70;99.90;;;;;;4997116;28;874;-45
2022/01/04 02:24:54;;;;;;;;;;;14.60;99.90;;;;;;4999528;28;1463;-45
2022/01/04 02:27:20;;;;;;;;;;;14.60;99.90;;;;;;4998281;28;864;-45
2022/01/04 02:29:47;;;;;;;;;;;14.60;99.90;;;;;;4996697;28;1967;-45
2022/01/04 02:32:13;;;;;;;;;;;14.70;99.90;;;;;;4997022;28;905;-45
2022/01/04 02:34:39;;;;;;;;;;;14.60;99.90;;;;;;4996546;28;762;-45
2022/01/04 02:37:06;;;;;;;;;;;14.70;99.90;;;;;;4996701;28;896;-45
2022/01/04 02:39:36;;;;;;;;;;;14.60;99.90;;;;;;4996897;28;932;-45
2022/01/04 02:42:03;;;;;;;;;;;14.60;99.90;;;;;;4996818;28;859;-45
2022/01/04 02:44:29;;;;;;;;;;;14.60;99.90;;;;;;4996059;28;1377;-45
2022/01/04 02:46:55;;;;;;;;;;;14.60;99.90;;;;;;4996804;28;936;-45
2022/01/04 02:49:22;;;;;;;;;;;14.60;99.90;;;;;;4996406;28;1911;-45
2022/01/04 02:51:48;;;;;;;;;;;14.60;99.90;;;;;;4996358;28;1616;-45
2022/01/04 02:54:14;;;;;;;;;;;14.60;99.90;;;;;;4996567;28;925;-45
2022/01/04 02:56:39;;;;;;;;;;;14.60;99.90;;;;;;4996879;28;983;-45
2022/01/04 02:59:05;;;;;;;;;;;14.60;99.90;;;;;;5000242;28;902;-45
2022/01/04 03:01:31;;;;;;;;;;;14.60;99.90;;;;;;4996383;28;807;-45
2022/01/04 03:03:57;;;;;;;;;;;14.60;99.90;;;;;;4996418;28;870;-45
2022/01/04 03:06:25;;;;;;;;;;;14.60;99.90;;;;;;4996328;28;873;-45
2022/01/04 03:08:54;;;;;;;;;;;14.60;99.90;;;;;;4996353;28;1906;-45
2022/01/04 03:11:20;;;;;;;;;;;14.50;99.90;;;;;;4997132;28;958;-45
2022/01/04 03:13:48;;;;;;;;;;;14.60;99.90;;;;;;4994641;28;972;-45
2022/01/04 03:16:14;;;;;;;;;;;14.50;99.90;;;;;;4994761;28;836;-45
2022/01/04 03:19:01;;;;;;;;;;;14.50;99.90;;;;;;4994642;28;902;-45
2022/01/04 03:21:26;;;;;;;;;;;14.50;99.90;;;;;;4994672;28;1439;-45
2022/01/04 03:23:52;;;;;;;;;;;14.50;99.90;;;;;;4994572;28;868;-45
2022/01/04 03:26:17;;;;;;;;;;;14.50;99.90;;;;;;4994455;28;831;-45
2022/01/04 03:28:43;;;;;;;;;;;14.50;99.90;;;;;;4994096;28;1906;-45
2022/01/04 03:31:09;;;;;;;;;;;14.50;99.90;;;;;;4994576;28;786;-45
2022/01/04 03:33:37;;;;;;;;;;;14.40;99.90;;;;;;4994469;28;952;-45
2022/01/04 03:36:04;;;;;;;;;;;14.40;99.90;;;;;;4994514;28;910;-45
2022/01/04 03:38:31;;;;;;;;;;;14.40;99.90;;;;;;4994160;28;1354;-45
2022/01/04 03:40:57;;;;;;;;;;;14.40;99.90;;;;;;4994106;28;1473;-45
2022/01/04 03:43:24;;;;;;;;;;;14.40;99.90;;;;;;4994594;28;913;-45
2022/01/04 03:45:50;;;;;;;;;;;14.40;99.90;;;;;;4995772;28;1333;-45
2022/01/04 03:48:16;;;;;;;;;;;14.40;99.90;;;;;;4995937;28;1911;-45
2022/01/04 03:50:42;;;;;;;;;;;14.40;99.90;;;;;;4995919;28;810;-45
2022/01/04 03:53:08;;;;;;;;;;;14.40;99.90;;;;;;4996314;28;845;-45
2022/01/04 03:55:34;;;;;;;;;;;14.40;99.90;;;;;;4995930;28;869;-45
2022/01/04 03:58:00;;;;;;;;;;;14.40;99.90;;;;;;4995939;28;1122;-45
2022/01/04 04:00:27;;;;;;;;;;;14.40;99.90;;;;;;4995990;28;814;-45
2022/01/04 04:02:52;;;;;;;;;;;14.40;99.90;;;;;;4996253;28;864;-45
2022/01/04 04:05:19;;;;;;;;;;;14.40;99.90;;;;;;4995929;28;865;-45
2022/01/04 04:07:45;;;;;;;;;;;14.40;99.90;;;;;;4998370;28;1977;-45
2022/01/04 04:10:10;;;;;;;;;;;14.40;99.90;;;;;;4999388;28;785;-45
2022/01/04 04:12:37;;;;;;;;;;;14.40;99.90;;;;;;4999692;28;957;-45
2022/01/04 04:15:05;;;;;;;;;;;14.40;99.90;;;;;;4999417;28;908;-45
2022/01/04 04:17:31;;;;;;;;;;;14.40;99.90;;;;;;4998527;28;869;-45
2022/01/04 04:19:57;;;;;;;;;;;14.30;99.90;;;;;;5008619;28;873;-45
2022/01/04 04:22:23;;;;;;;;;;;14.30;99.90;;;;;;4999100;28;826;-44
2022/01/04 04:24:49;;;;;;;;;;;14.30;99.90;;;;;;4999393;28;869;-53
2022/01/04 04:27:15;;;;;;;;;;;14.30;99.90;;;;;;4999098;28;858;-53
2022/01/04 04:29:42;;;;;;;;;;;14.30;99.90;;;;;;4999025;28;1943;-53
2022/01/04 04:32:10;;;;;;;;;;;14.30;99.90;;;;;;4998275;28;885;-53
2022/01/04 04:34:38;;;;;;;;;;;14.30;99.90;;;;;;4998514;28;921;-53
2022/01/04 04:37:05;;;;;;;;;;;14.30;99.90;;;;;;4997976;28;857;-53
2022/01/04 04:39:31;;;;;;;;;;;14.30;99.90;;;;;;4998083;28;767;-54
2022/01/04 04:41:57;;;;;;;;;;;14.30;99.90;;;;;;4997988;28;786;-53
2022/01/04 04:44:23;;;;;;;;;;;14.20;99.90;;;;;;4997791;28;1263;-53
2022/01/04 04:46:49;;;;;;;;;;;14.20;99.90;;;;;;4999011;28;785;-53
2022/01/04 04:49:15;;;;;;;;;;;14.20;99.90;;;;;;4998160;28;1989;-53
2022/01/04 04:51:42;;;;;;;;;;;14.20;99.90;;;;;;4998472;28;890;-54
2022/01/04 04:54:09;;;;;;;;;;;14.20;99.90;;;;;;4998718;28;827;-53
2022/01/04 04:56:38;;;;;;;;;;;14.20;99.90;;;;;;4998585;28;854;-53
2022/01/04 04:59:07;;;;;;;;;;;14.20;99.90;;;;;;4998572;28;774;-53
2022/01/04 05:01:33;;;;;;;;;;;14.20;99.90;;;;;;4998444;28;862;-53
2022/01/04 05:04:00;;;;;;;;;;;14.10;99.90;;;;;;4998334;28;809;-54
2022/01/04 05:06:26;;;;;;;;;;;14.10;99.90;;;;;;4998474;28;866;-53
2022/01/04 05:08:52;;;;;;;;;;;14.10;99.90;;;;;;4998231;28;1910;-53
2022/01/04 05:11:18;;;;;;;;;;;14.10;99.90;;;;;;4998364;28;928;-53
2022/01/04 05:13:44;;;;;;;;;;;14.10;99.90;;;;;;4998327;28;790;-53
2022/01/04 05:16:11;;;;;;;;;;;14.10;99.90;;;;;;5013557;28;858;-53
2022/01/04 05:18:39;;;;;;;;;;;14.10;99.90;;;;;;5029438;28;918;-53
2022/01/04 05:21:06;;;;;;;;;;;14.10;99.90;;;;;;4997912;28;814;-53
2022/01/04 05:23:32;;;;;;;;;;;14.10;99.90;;;;;;4998102;28;775;-53
2022/01/04 05:25:58;;;;;;;;;;;14.10;99.90;;;;;;4998239;28;1045;-54
2022/01/04 05:28:23;;;;;;;;;;;14.00;99.90;;;;;;4997866;28;1906;-53
2022/01/04 05:30:50;;;;;;;;;;;14.00;99.90;;;;;;4998762;28;944;-53
2022/01/04 05:33:16;;;;;;;;;;;14.00;99.90;;;;;;4997795;28;876;-53
2022/01/04 05:35:42;;;;;;;;;;;14.00;99.90;;;;;;4997588;28;888;-53
2022/01/04 05:38:09;;;;;;;;;;;14.00;99.90;;;;;;5013108;28;880;-53
2022/01/04 05:40:35;;;;;;;;;;;14.00;99.90;;;;;;5013188;28;797;-53
2022/01/04 05:43:02;;;;;;;;;;;14.00;99.90;;;;;;4997753;28;1636;-53
2022/01/04 05:45:31;;;;;;;;;;;14.00;99.90;;;;;;4997500;28;1106;-53
2022/01/04 05:47:57;;;;;;;;;;;14.00;99.90;;;;;;4998169;28;1965;-53
2022/01/04 05:50:24;;;;;;;;;;;14.00;99.90;;;;;;4996886;28;1484;-53
2022/01/04 05:52:51;;;;;;;;;;;14.00;99.90;;;;;;4979880;28;952;-53
2022/01/04 05:55:17;;;;;;;;;;;14.00;99.90;;;;;;4997081;28;1066;-53
2022/01/04 05:57:43;;;;;;;;;;;14.00;99.90;;;;;;4997658;28;939;-54
2022/01/04 06:00:09;;;;;;;;;;;14.00;99.90;;;;;;4997333;28;833;-53
2022/01/04 06:02:35;;;;;;;;;;;14.00;99.90;;;;;;5012866;28;774;-53
2022/01/04 06:05:03;;;;;;;;;;;14.00;99.90;;;;;;4992898;28;868;-53
2022/01/04 06:07:29;;;;;;;;;;;14.00;99.90;;;;;;5012255;28;848;-53
2022/01/04 06:09:55;;;;;;;;;;;14.00;99.90;;;;;;5015153;28;1906;-53
2022/01/04 06:14:59;;;;;;;;;;;14.10;99.90;;;;;;5015097;28;801;-54
2022/01/04 06:17:31;;;;;;;;;;;14.20;99.90;;;;;;5015090;28;817;-53
2022/01/04 06:19:58;;;;;;;;;;;14.20;99.90;;;;;;5015017;28;1120;-53
2022/01/04 06:22:25;;;;;;;;;;;14.30;99.90;;;;;;5014781;28;858;-53
2022/01/04 06:24:51;;;;;;;;;;;14.40;99.90;;;;;;5014955;28;1016;-53
2022/01/04 06:27:18;;;;;;;;;;;14.40;99.90;;;;;;5014274;28;902;-53
2022/01/04 06:29:45;;;;;;;;;;;14.50;99.90;;;;;;5014361;28;1977;-53
2022/01/04 06:32:13;;;;;;;;;;;14.50;99.90;;;;;;5014850;28;1647;-53
2022/01/04 06:34:40;;;;;;;;;;;14.50;99.90;;;;;;5014742;28;901;-54
2022/01/04 06:37:06;;;;;;;;;;;14.60;99.90;;;;;;5014621;28;805;-53
2022/01/04 06:39:32;;;;;;;;;;;14.60;99.90;;;;;;4997858;28;836;-53
2022/01/04 06:42:00;;;;;;;;;;;14.70;99.90;;;;;;4996898;28;901;-53
2022/01/04 06:44:26;;;;;;;;;;;14.70;99.90;;;;;;4994396;28;1251;-53
2022/01/04 06:46:53;;;;;;;;;;;14.70;99.90;;;;;;4996565;28;853;-53
2022/01/04 06:49:19;;;;;;;;;;;14.70;99.90;;;;;;4996744;28;1899;-53
2022/01/04 06:51:47;;;;;;;;;;;14.70;99.90;;;;;;4996485;28;839;-53
2022/01/04 06:54:15;;;;;;;;;;;14.70;99.90;;;;;;4996486;28;1206;-53
2022/01/04 06:56:43;;;;;;;;;;;14.70;99.90;;;;;;4996445;28;857;-54
2022/01/04 06:59:09;;;;;;;;;;;14.70;99.90;;;;;;4996462;28;827;-54
2022/01/04 07:01:36;;;;;;;;;;;14.70;99.90;;;;;;4996530;28;857;-53
2022/01/04 07:04:03;;;;;;;;;;;14.70;99.90;;;;;;4996304;28;767;-54
2022/01/04 07:06:29;;;;;;;;;;;14.70;99.90;;;;;;4996995;28;1319;-53
2022/01/04 07:08:55;;;;;;;;;;;14.70;99.90;;;;;;4995996;28;1906;-54
2022/01/04 07:11:21;;;;;;;;;;;14.70;99.90;;;;;;4996719;28;908;-53
2022/01/04 07:13:47;;;;;;;;;;;14.70;99.90;;;;;;4996368;28;817;-53
2022/01/04 07:16:13;;;;;;;;;;;14.60;99.90;;;;;;4996402;28;822;-53
2022/01/04 07:18:41;;;;;;;;;;;14.70;99.90;;;;;;4996304;28;794;-53
2022/01/04 07:21:08;;;;;;;;;;;14.70;99.90;;;;;;4996078;28;1000;-54
2022/01/04 07:23:34;;;;;;;;;;;14.70;99.90;;;;;;4996294;28;785;-54
2022/01/04 07:25:59;;;;;;;;;;;14.60;99.90;;;;;;5027719;28;980;-53
2022/01/04 07:28:25;;;;;;;;;;;14.60;99.90;;;;;;4996285;28;1969;-53
2022/01/04 07:30:51;;;;;;;;;;;14.60;99.90;;;;;;4995418;28;1155;-54
2022/01/04 07:33:17;;;;;;;;;;;14.60;99.90;;;;;;4996207;28;1157;-54
2022/01/04 07:35:46;;;;;;;;;;;14.60;99.90;;;;;;4996064;28;950;-54
2022/01/04 07:38:12;;;;;;;;;;;14.60;99.90;;;;;;4996298;28;876;-54
2022/01/04 07:40:39;;;;;;;;;;;14.60;99.90;;;;;;5011731;28;880;-53
2022/01/04 07:43:07;;;;;;;;;;;14.60;99.90;;;;;;4999367;28;1225;-54
2022/01/04 07:45:33;;;;;;;;;;;14.60;99.90;;;;;;5006238;28;1499;-53
2022/01/04 07:48:00;;;;;;;;;;;14.50;99.90;;;;;;5003766;28;877;-54
2022/01/04 07:50:26;;;;;;;;;;;14.50;99.90;;;;;;5015151;28;1906;-54
2022/01/04 07:52:52;;;;;;;;;;;14.50;99.90;;;;;;5000105;28;849;-54
2022/01/04 07:55:18;;;;;;;;;;;14.50;99.90;;;;;;5015289;28;993;-53
2022/01/04 07:57:45;;;;;;;;;;;14.50;99.90;;;;;;5031323;28;938;-54
2022/01/04 08:00:20;;;;;;;;;;;14.50;99.90;;;;;;4999621;28;952;-53
2022/01/04 08:02:46;;;;;;;;;;;14.50;99.90;;;;;;4999448;28;1054;-54
2022/01/04 08:05:12;;;;;;;;;;;14.50;99.90;;;;;;4999635;28;806;-53
2022/01/04 08:07:39;;;;;;;;;;;14.50;99.90;;;;;;4999229;28;873;-53
2022/01/04 08:10:06;;;;;;;;;;;14.40;99.90;;;;;;5000152;28;1911;-53
2022/01/04 08:12:32;;;;;;;;;;;14.40;99.90;;;;;;5002932;28;889;-53
2022/01/04 08:14:58;;;;;;;;;;;14.40;99.90;;;;;;5014699;28;767;-53
2022/01/04 08:17:25;;;;;;;;;;;14.40;99.90;;;;;;4999500;28;801;-53
2022/01/04 08:19:52;;;;;;;;;;;14.40;99.90;;;;;;4999213;28;870;-53
2022/01/04 08:22:18;;;;;;;;;;;14.40;99.90;;;;;;4999268;28;767;-53
2022/01/04 08:24:44;;;;;;;;;;;14.40;99.90;;;;;;5030564;28;959;-53
2022/01/04 08:27:11;;;;;;;;;;;14.40;99.90;;;;;;4999352;28;865;-53
2022/01/04 08:29:37;;;;;;;;;;;14.40;99.90;;;;;;4998955;28;1965;-54
2022/01/04 08:32:03;;;;;;;;;;;14.40;99.90;;;;;;4999055;28;805;-53
2022/01/04 08:34:29;;;;;;;;;;;14.30;99.90;;;;;;4999039;28;910;-53
2022/01/04 08:36:55;;;;;;;;;;;14.30;99.90;;;;;;4999282;28;901;-53
2022/01/04 08:39:26;;;;;;;;;;;14.30;99.90;;;;;;4998903;28;845;-53
2022/01/04 08:42:01;;;;;;;;;;;14.30;99.90;;;;;;5014187;28;868;-53
2022/01/04 08:44:28;;;;;;;;;;;14.30;99.90;;;;;;4994647;28;1310;-53
2022/01/04 08:46:54;;;;;;;;;;;14.30;99.90;;;;;;5014403;28;893;-53
2022/01/04 08:49:20;;;;;;;;;;;14.30;99.90;;;;;;4998786;28;1975;-53
2022/01/04 08:51:46;;;;;;;;;;;14.30;99.90;;;;;;4998113;28;1247;-53
2022/01/04 08:54:12;;;;;;;;;;;14.30;99.90;;;;;;4998459;28;948;-54
2022/01/04 08:56:38;;;;;;;;;;;14.30;99.90;;;;;;4998625;28;806;-54
2022/01/04 08:59:05;;;;;;;;;;;14.30;99.90;;;;;;4998495;28;904;-53
2022/01/04 09:01:32;;;;;;;;;;;14.30;99.90;;;;;;4998114;28;916;-53
2022/01/04 09:03:58;;;;;;;;;;;14.30;99.90;;;;;;4998342;28;808;-53
2022/01/04 09:06:26;;;;;;;;;;;14.30;99.90;;;;;;4998211;28;818;-53
2022/01/04 09:08:55;;;;;;;;;;;14.30;99.90;;;;;;4998521;28;1910;-53
2022/01/04 09:11:24;;;;;;;;;;;14.30;99.90;;;;;;4998786;28;762;-53
2022/01/04 09:13:54;;;;;;;;;;;14.30;99.90;;;;;;5029568;28;988;-53
2022/01/04 09:19:11;;;;;;;;;;;14.30;99.90;;;;;;4970777;28;1123;-53
2022/01/04 09:21:38;;;;;;;;;;;14.30;99.90;;;;;;4999106;28;806;-53
2022/01/04 09:24:05;;;;;;;;;;;14.30;99.90;;;;;;4998159;28;862;-54
2022/01/04 09:26:31;;;;;;;;;;;14.20;99.90;;;;;;4998114;28;805;-45
2022/01/04 09:28:58;;;;;;;;;;;14.30;99.90;;;;;;5013190;28;1906;-45
2022/01/04 09:31:26;;;;;;;;;;;14.30;99.90;;;;;;4998111;28;792;-45
2022/01/04 09:33:54;;;;;;;;;;;14.30;99.90;;;;;;4997799;28;908;-45
2022/01/04 09:36:20;;;;;;;;;;;14.20;99.90;;;;;;4997738;28;770;-45
2022/01/04 09:38:46;;;;;;;;;;;14.20;99.90;;;;;;4997852;28;839;-45
2022/01/04 09:41:11;;;;;;;;;;;14.20;99.90;;;;;;4997893;28;884;-45
2022/01/04 09:43:37;;;;;;;;;;;14.20;99.90;;;;;;4997576;28;1227;-45
2022/01/04 09:46:03;;;;;;;;;;;14.20;99.90;;;;;;4997764;28;781;-45
2022/01/04 09:48:31;;;;;;;;;;;14.20;99.90;;;;;;4997760;28;807;-53
2022/01/04 09:50:59;;;;;;;;;;;14.20;99.90;;;;;;5013067;28;1902;-45
2022/01/04 09:53:26;;;;;;;;;;;14.20;99.90;;;;;;4997596;28;834;-45
2022/01/04 09:55:53;;;;;;;;;;;14.20;99.90;;;;;;4996898;28;1267;-45
2022/01/04 09:58:21;;;;;;;;;;;14.20;99.90;;;;;;4997788;28;825;-45
2022/01/04 10:00:48;;;;;;;;;;;14.20;99.90;;;;;;4997497;28;958;-53
2022/01/04 10:03:22;;;;;;;;;;;14.20;99.90;;;;;;4997420;28;862;-53
2022/01/04 10:05:48;;;;;;;;;;;14.20;99.90;;;;;;4996913;28;1000;-53
2022/01/04 10:08:15;;;;;;;;;;;14.20;99.90;;;;;;4997023;28;875;-44
2022/01/04 10:10:42;;;;;;;;;;;14.20;99.90;;;;;;4996937;28;1898;-45
2022/01/04 10:13:09;;;;;;;;;;;14.20;99.90;;;;;;4997196;28;829;-44
2022/01/04 10:15:47;;;;;;;;;;;14.20;99.90;;;;;;4997251;28;807;-44
2022/01/04 10:18:13;;;;;;;;;;;14.20;99.90;;;;;;4996178;28;1000;-45
2022/01/04 10:20:44;;;;;;;;;;;14.20;99.90;;;;;;4996867;28;867;-53
2022/01/04 10:23:11;;;;;;;;;;;14.20;99.90;;;;;;4996867;28;1154;-54
2022/01/04 10:25:41;;;;;;;;;;;14.20;99.90;;;;;;4993213;28;831;-45
2022/01/04 10:28:09;;;;;;;;;;;14.30;99.90;;;;;;4997029;28;837;-53
2022/01/04 10:30:39;;;;;;;;;;;14.30;99.90;;;;;;4996947;28;1969;-53
2022/01/04 10:33:24;;;;;;;;;;;14.30;99.90;;;;;;4997310;28;834;-53
2022/01/04 10:35:52;;;;;;;;;;;14.30;99.90;;;;;;5028193;28;1015;-53
2022/01/04 10:38:20;;;;;;;;;;;14.30;99.90;;;;;;5012219;28;857;-53
2022/01/04 10:41:04;;;;;;;;;;;14.30;99.90;;;;;;4997029;28;798;-53
2022/01/04 10:43:31;;;;;;;;;;;14.30;99.90;;;;;;5012425;28;1071;-53
2022/01/04 10:45:58;;;;;;;;;;;14.30;99.90;;;;;;4996975;28;1051;-53
2022/01/04 10:48:28;;;;;;;;;;;14.30;99.90;;;;;;4996610;28;867;-45
2022/01/04 10:50:55;;;;;;;;;;;14.30;99.90;;;;;;4996907;28;1906;-45
2022/01/04 10:53:41;;;;;;;;;;;14.20;99.90;;;;;;4996877;28;818;-54
2022/01/04 10:56:09;;;;;;;;;;;14.30;99.90;;;;;;4996485;28;2050;-53
2022/01/04 10:58:54;;;;;;;;;;;14.20;99.90;;;;;;4996729;28;1151;-53
2022/01/04 11:01:21;;;;;;;;;;;14.20;99.90;;;;;;4996941;28;1314;-45
2022/01/04 11:03:54;;;;;;;;;;;14.20;99.90;;;;;;4996579;28;903;-53
2022/01/04 11:06:22;;;;;;;;;;;14.20;99.90;;;;;;4996259;28;974;-53
2022/01/04 11:08:48;;;;;;;;;;;14.20;99.90;;;;;;5011714;28;1910;-53
2022/01/04 11:11:14;;;;;;;;;;;14.20;99.90;;;;;;4996094;28;1185;-53
2022/01/04 11:13:40;;;;;;;;;;;14.20;99.90;;;;;;4996517;28;1014;-54
2022/01/04 11:16:08;;;;;;;;;;;14.20;99.90;;;;;;4998265;28;1037;-54
2022/01/04 11:18:34;;;;;;;;;;;14.20;99.90;;;;;;5000671;28;947;-53
2022/01/04 11:21:00;;;;;;;;;;;14.20;99.90;;;;;;5000012;28;838;-54
2022/01/04 11:23:28;;;;;;;;;;;14.20;99.90;;;;;;5000672;28;981;-53
2022/01/04 11:25:55;;;;;;;;;;;14.20;99.90;;;;;;5000368;28;774;-54
2022/01/04 11:28:21;;;;;;;;;;;14.20;99.90;;;;;;5000026;28;830;-53
2022/01/04 11:30:59;;;;;;;;;;;14.20;99.90;;;;;;5000111;28;1969;-53
2022/01/04 11:33:45;;;;;;;;;;;14.20;99.90;;;;;;5000915;28;972;-53
2022/01/04 11:36:15;;;;;;;;;;;14.20;99.90;;;;;;5015797;28;837;-45
2022/01/04 11:38:41;;;;;;;;;;;14.20;99.90;;;;;;5000066;28;865;-45
2022/01/04 11:41:07;;;;;;;;;;;14.20;99.90;;;;;;5000144;28;842;-45
2022/01/04 11:43:33;;;;;;;;;;;14.20;99.90;;;;;;5015445;28;1741;-45
2022/01/04 11:46:02;;;;;;;;;;;14.20;99.90;;;;;;5000650;28;849;-53
2022/01/04 11:48:28;;;;;;;;;;;14.10;99.90;;;;;;5000000;28;775;-45
2022/01/04 11:50:55;;;;;;;;;;;14.10;99.90;;;;;;5000338;28;1939;-44
2022/01/04 11:53:21;;;;;;;;;;;14.10;99.90;;;;;;4999277;28;1231;-45
2022/01/04 11:55:51;;;;;;;;;;;14.10;99.90;;;;;;5000469;28;877;-45
2022/01/04 11:58:20;;;;;;;;;;;14.10;99.90;;;;;;4999794;28;779;-45
2022/01/04 12:01:06;;;;;;;;;;;14.10;99.90;;;;;;4998076;28;1232;-45
2022/01/04 12:03:40;;;;;;;;;;;14.10;99.90;;;;;;5030965;28;882;-45
2022/01/04 12:06:12;;;;;;;;;;;14.10;99.90;;;;;;4999190;28;1027;-45
2022/01/04 12:08:39;;;;;;;;;;;14.10;99.90;;;;;;4999270;28;1071;-45
2022/01/04 12:11:25;;;;;;;;;;;14.10;99.90;;;;;;5000003;28;1898;-54
2022/01/04 12:13:52;;;;;;;;;;;14.10;99.90;;;;;;4999430;28;820;-54
2022/01/04 12:16:30;;;;;;;;;;;14.10;99.90;;;;;;4999197;28;1091;-53
2022/01/04 12:18:57;;;;;;;;;;;14.10;99.90;;;;;;4999380;28;789;-54
2022/01/04 12:21:33;;;;;;;;;;;14.10;99.90;;;;;;4998886;28;1000;-53
2022/01/04 12:24:00;;;;;;;;;;;14.10;99.90;;;;;;4999775;28;959;-53
2022/01/04 12:26:28;;;;;;;;;;;14.10;99.90;;;;;;4999330;28;895;-45
2022/01/04 12:28:55;;;;;;;;;;;14.10;99.90;;;;;;4998690;28;939;-45
2022/01/04 12:31:24;;;;;;;;;;;14.10;99.90;;;;;;4999433;28;1902;-53
2022/01/04 12:33:58;;;;;;;;;;;14.10;99.90;;;;;;4998986;28;826;-53
2022/01/04 12:36:29;;;;;;;;;;;14.10;99.90;;;;;;4998842;28;768;-53
2022/01/04 12:38:58;;;;;;;;;;;14.10;99.90;;;;;;4999396;28;811;-45
2022/01/04 12:41:24;;;;;;;;;;;14.10;99.90;;;;;;4998795;28;904;-53
2022/01/04 12:43:51;;;;;;;;;;;14.10;99.90;;;;;;4998614;28;1058;-53
2022/01/04 12:46:29;;;;;;;;;;;14.10;99.90;;;;;;5014365;28;849;-53
2022/01/04 12:48:56;;;;;;;;;;;14.10;99.90;;;;;;4998659;28;927;-53
2022/01/04 12:51:25;;;;;;;;;;;14.20;99.90;;;;;;4998589;28;1902;-53
2022/01/04 12:53:51;;;;;;;;;;;14.20;99.90;;;;;;4998246;28;1254;-53
2022/01/04 12:56:17;;;;;;;;;;;14.20;99.90;;;;;;5014153;28;1298;-45
2022/01/04 12:58:43;;;;;;;;;;;14.20;99.90;;;;;;4998643;28;820;-45
2022/01/04 13:01:12;;;;;;;;;;;14.20;99.90;;;;;;4998513;28;857;-45
2022/01/04 13:03:39;;;;;;;;;;;14.20;99.90;;;;;;4998481;28;933;-45
2022/01/04 13:06:05;;;;;;;;;;;14.20;99.90;;;;;;4998229;28;756;-53
2022/01/04 13:08:32;;;;;;;;;;;14.20;99.90;;;;;;4998096;28;871;-53
2022/01/04 13:11:15;;;;;;;;;;;14.20;99.90;;;;;;4998559;28;1965;-53
2022/01/04 13:13:43;;;;;;;;;;;14.20;99.90;;;;;;4998566;28;942;-54
2022/01/04 13:16:19;;;;;;;;;;;14.20;99.90;;;;;;4998181;28;832;-54
2022/01/04 13:18:45;;;;;;;;;;;14.20;99.90;;;;;;4998121;28;866;-54
2022/01/04 13:21:14;;;;;;;;;;;14.20;99.90;;;;;;4998074;28;992;-54
2022/01/04 13:23:41;;;;;;;;;;;14.20;99.90;;;;;;4997979;28;817;-54
2022/01/04 13:26:09;;;;;;;;;;;14.20;99.90;;;;;;5013491;28;799;-54
2022/01/04 13:28:36;;;;;;;;;;;14.20;99.90;;;;;;4998066;28;853;-54
2022/01/04 13:31:03;;;;;;;;;;;14.10;99.90;;;;;;4998171;28;1898;-54
2022/01/04 13:33:29;;;;;;;;;;;14.20;99.90;;;;;;4998223;28;900;-54
2022/01/04 13:35:56;;;;;;;;;;;14.20;99.90;;;;;;4997627;28;957;-54
2022/01/04 13:38:23;;;;;;;;;;;14.20;99.90;;;;;;4998298;28;826;-54
2022/01/04 13:40:51;;;;;;;;;;;14.20;99.90;;;;;;4999771;28;1367;-53
2022/01/04 13:43:25;;;;;;;;;;;14.20;99.90;;;;;;4998070;28;1045;-53
2022/01/04 13:45:56;;;;;;;;;;;14.20;99.90;;;;;;4997549;28;1588;-54
2022/01/04 13:48:30;;;;;;;;;;;14.20;99.90;;;;;;4997987;28;791;-54
2022/01/04 13:51:03;;;;;;;;;;;14.20;99.90;;;;;;4997553;28;1902;-54
2022/01/04 13:53:33;;;;;;;;;;;14.20;99.90;;;;;;4998011;28;1032;-53
2022/01/04 13:56:01;;;;;;;;;;;14.20;99.90;;;;;;4999773;28;1393;-54
2022/01/04 13:58:37;;;;;;;;;;;14.20;99.90;;;;;;4998655;28;1023;-54
2022/01/04 14:01:30;;;;;;;;;;;14.20;99.90;;;;;;4997436;28;885;-54
2022/01/04 14:04:08;;;;;;;;;;;14.20;99.90;;;;;;4995647;28;1271;-54
2022/01/04 14:06:36;;;;;;;;;;;14.20;99.90;;;;;;4997318;28;791;-54
2022/01/04 14:09:04;;;;;;;;;;;14.20;99.90;;;;;;4997495;28;1054;-53
2022/01/04 14:11:34;;;;;;;;;;;14.20;99.90;;;;;;4997113;28;1973;-53
2022/01/04 14:14:12;;;;;;;;;;;14.20;99.90;;;;;;4997034;28;975;-53
2022/01/04 14:16:43;;;;;;;;;;;14.20;99.90;;;;;;4997548;28;924;-54
2022/01/04 14:19:25;;;;;;;;;;;14.20;99.90;;;;;;4997062;28;782;-54
2022/01/04 14:22:09;;;;;;;;;;;14.20;99.90;;;;;;4996953;28;780;-54
2022/01/04 14:24:38;;;;;;;;;;;14.20;99.90;;;;;;4997281;28;794;-54
2022/01/04 14:27:11;;;;;;;;;;;14.20;99.90;;;;;;4997428;28;917;-54
2022/01/04 14:29:39;;;;;;;;;;;14.20;99.90;;;;;;4997194;28;1993;-53
2022/01/04 14:32:07;;;;;;;;;;;14.20;99.90;;;;;;4996998;28;992;-55
2022/01/04 14:34:33;;;;;;;;;;;14.20;99.90;;;;;;4997420;28;1060;-54
2022/01/04 14:36:59;;;;;;;;;;;14.10;99.90;;;;;;4996596;28;797;-54
2022/01/04 14:39:25;;;;;;;;;;;14.10;99.90;;;;;;4996625;28;901;-54
2022/01/04 14:41:52;;;;;;;;;;;14.10;99.90;;;;;;4996957;28;908;-54
2022/01/04 14:44:18;;;;;;;;;;;14.10;99.90;;;;;;4996720;28;1098;-54
2022/01/04 14:46:44;;;;;;;;;;;14.10;99.90;;;;;;4996719;28;763;-54
2022/01/04 14:49:10;;;;;;;;;;;14.10;99.90;;;;;;4996759;28;782;-54